KLM89H EHAM-EGLL
Flight info
| Callsign | KLM89H |
|---|---|
| Flight time | 0h 44m |
| Altitude | 24000 |
| Route | IDRID L980 LOGAN |
| Aircraft | A333/H-SDE3GHIJ2J3J5M1RVWXY/LB2D1 |
Departure
| Time | 2026-04-30 17:48 |
|---|---|
| Airport | Amsterdam Airport Schiphol (EHAM) |
Arrival
| Time | 2026-04-30 18:32 |
|---|---|
| Airport | London Heathrow Airport (EGLL) |
| Time | Latitude | Longitude | Altitude | Speed | Heading |
|---|---|---|---|---|---|
| 2026-04-30 17:39 | 52.31320 | 4.75449 | 5 ft | 0 kts | 357° |
| 2026-04-30 17:41 | 52.31324 | 4.75448 | 6 ft | 0 kts | 357° |
| 2026-04-30 17:42 | 52.31345 | 4.75447 | 6 ft | 8 kts | 358° |
| 2026-04-30 17:42 | 52.31375 | 4.75443 | 3 ft | 0 kts | 351° |
| 2026-04-30 17:44 | 52.31445 | 4.75438 | 3 ft | 9 kts | 354° |
| 2026-04-30 17:44 | 52.31500 | 4.75092 | 3 ft | 13 kts | 266° |
| 2026-04-30 17:46 | 52.31669 | 4.74824 | 2 ft | 11 kts | 86° |
| 2026-04-30 17:47 | 52.31834 | 4.79971 | 539 ft | 186 kts | 89° |
| 2026-04-30 17:48 | 52.35882 | 4.82448 | 3511 ft | 254 kts | 329° |
| 2026-04-30 17:48 | 52.40185 | 4.76901 | 5735 ft | 281 kts | 314° |
| 2026-04-30 17:49 | 52.45926 | 4.66927 | 9052 ft | 310 kts | 301° |
| 2026-04-30 17:50 | 52.45558 | 4.52922 | 11337 ft | 346 kts | 227° |
| 2026-04-30 17:51 | 52.40363 | 4.44358 | 13350 ft | 366 kts | 228° |
| 2026-04-30 17:52 | 52.35775 | 4.34037 | 15418 ft | 380 kts | 232° |
| 2026-04-30 17:53 | 52.28112 | 4.15918 | 18668 ft | 395 kts | 232° |
| 2026-04-30 17:54 | 52.21688 | 4.00990 | 20821 ft | 408 kts | 232° |
| 2026-04-30 17:55 | 52.15048 | 3.85653 | 22884 ft | 419 kts | 232° |
| 2026-04-30 17:56 | 52.08217 | 3.69970 | 24265 ft | 437 kts | 232° |
| 2026-04-30 17:57 | 52.02827 | 3.57665 | 24263 ft | 447 kts | 232° |
| 2026-04-30 17:58 | 51.97407 | 3.45341 | 24275 ft | 450 kts | 232° |
| 2026-04-30 17:59 | 51.89933 | 3.28457 | 24272 ft | 463 kts | 232° |
| 2026-04-30 18:00 | 51.84440 | 3.09807 | 24262 ft | 469 kts | 259° |
| 2026-04-30 18:00 | 51.83302 | 2.94058 | 24260 ft | 471 kts | 263° |
| 2026-04-30 18:01 | 51.82689 | 2.83527 | 24251 ft | 470 kts | 263° |
| 2026-04-30 18:02 | 51.81671 | 2.67772 | 24237 ft | 470 kts | 262° |
| 2026-04-30 18:02 | 51.80587 | 2.52108 | 24239 ft | 470 kts | 262° |
| 2026-04-30 18:03 | 51.79476 | 2.36383 | 24233 ft | 469 kts | 261° |
| 2026-04-30 18:04 | 51.78368 | 2.20673 | 24229 ft | 470 kts | 262° |
| 2026-04-30 18:05 | 51.77126 | 1.99628 | 24220 ft | 471 kts | 263° |
| 2026-04-30 18:06 | 51.75851 | 1.78622 | 24219 ft | 469 kts | 262° |
| 2026-04-30 18:07 | 51.74541 | 1.57675 | 23960 ft | 465 kts | 262° |
| 2026-04-30 18:08 | 51.73558 | 1.42342 | 21876 ft | 453 kts | 262° |
| 2026-04-30 18:09 | 51.72245 | 1.22380 | 19684 ft | 440 kts | 262° |
| 2026-04-30 18:10 | 51.70951 | 1.03170 | 17322 ft | 424 kts | 261° |
| 2026-04-30 18:11 | 51.69684 | 0.84815 | 14959 ft | 400 kts | 261° |
| 2026-04-30 18:11 | 51.68784 | 0.72003 | 13204 ft | 373 kts | 260° |
| 2026-04-30 18:12 | 51.67889 | 0.59529 | 11397 ft | 370 kts | 260° |
| 2026-04-30 18:13 | 51.67298 | 0.51366 | 10246 ft | 364 kts | 260° |
| 2026-04-30 18:13 | 51.66529 | 0.40841 | 9230 ft | 338 kts | 260° |
| 2026-04-30 18:14 | 51.65925 | 0.32609 | 9215 ft | 298 kts | 259° |
| 2026-04-30 18:15 | 51.65185 | 0.22828 | 9206 ft | 295 kts | 259° |
| 2026-04-30 18:15 | 51.64268 | 0.13079 | 9209 ft | 294 kts | 256° |
| 2026-04-30 18:16 | 51.63808 | 0.06520 | 9210 ft | 295 kts | 261° |
| 2026-04-30 18:16 | 51.63430 | -0.00111 | 9215 ft | 296 kts | 261° |
| 2026-04-30 18:17 | 51.63239 | -0.03400 | 9206 ft | 295 kts | 261° |
| 2026-04-30 18:17 | 51.63045 | -0.06626 | 8809 ft | 296 kts | 261° |
| 2026-04-30 18:17 | 51.62655 | -0.13162 | 8272 ft | 289 kts | 261° |
| 2026-04-30 18:18 | 51.62467 | -0.16345 | 8263 ft | 290 kts | 261° |
| 2026-04-30 18:18 | 51.62278 | -0.19572 | 8260 ft | 290 kts | 261° |
| 2026-04-30 18:18 | 51.62083 | -0.22802 | 8262 ft | 290 kts | 261° |
| 2026-04-30 18:18 | 51.61890 | -0.26033 | 8265 ft | 290 kts | 261° |
| 2026-04-30 18:19 | 51.61694 | -0.29262 | 8267 ft | 290 kts | 261° |
| 2026-04-30 18:19 | 51.61493 | -0.32530 | 8186 ft | 290 kts | 261° |
| 2026-04-30 18:19 | 51.61298 | -0.35719 | 8185 ft | 290 kts | 261° |
| 2026-04-30 18:19 | 51.61098 | -0.38983 | 8184 ft | 290 kts | 261° |
| 2026-04-30 18:20 | 51.60905 | -0.42163 | 8183 ft | 287 kts | 261° |
| 2026-04-30 18:20 | 51.60717 | -0.45269 | 8188 ft | 271 kts | 261° |
| 2026-04-30 18:20 | 51.60546 | -0.48206 | 8186 ft | 258 kts | 261° |
| 2026-04-30 18:20 | 51.60384 | -0.51058 | 8188 ft | 256 kts | 261° |
| 2026-04-30 18:21 | 51.60224 | -0.53906 | 8186 ft | 256 kts | 261° |
| 2026-04-30 18:21 | 51.60060 | -0.56756 | 8185 ft | 256 kts | 261° |
| 2026-04-30 18:21 | 51.59899 | -0.59612 | 8185 ft | 256 kts | 261° |
| 2026-04-30 18:21 | 51.59736 | -0.62467 | 8178 ft | 256 kts | 261° |
| 2026-04-30 18:22 | 51.59573 | -0.65341 | 7880 ft | 260 kts | 261° |
| 2026-04-30 18:22 | 51.59236 | -0.71148 | 6997 ft | 263 kts | 261° |
| 2026-04-30 18:22 | 51.59060 | -0.74062 | 6444 ft | 261 kts | 258° |
| 2026-04-30 18:23 | 51.58587 | -0.76838 | 5864 ft | 255 kts | 244° |
| 2026-04-30 18:23 | 51.57880 | -0.79437 | 5278 ft | 253 kts | 241° |
| 2026-04-30 18:23 | 51.57153 | -0.81989 | 4702 ft | 250 kts | 240° |
| 2026-04-30 18:23 | 51.56432 | -0.84529 | 4129 ft | 250 kts | 240° |
| 2026-04-30 18:24 | 51.54978 | -0.89594 | 3121 ft | 242 kts | 231° |
| 2026-04-30 18:24 | 51.53868 | -0.91247 | 3020 ft | 207 kts | 199° |
| 2026-04-30 18:24 | 51.52575 | -0.91627 | 3004 ft | 177 kts | 166° |
| 2026-04-30 18:25 | 51.51522 | -0.90815 | 2996 ft | 165 kts | 143° |
| 2026-04-30 18:25 | 51.50098 | -0.88015 | 2980 ft | 165 kts | 115° |
| 2026-04-30 18:25 | 51.49696 | -0.86295 | 2980 ft | 166 kts | 111° |
| 2026-04-30 18:26 | 51.49015 | -0.82755 | 2982 ft | 166 kts | 110° |
| 2026-04-30 18:26 | 51.48707 | -0.81058 | 2976 ft | 151 kts | 110° |
| 2026-04-30 18:26 | 51.48367 | -0.79506 | 2999 ft | 145 kts | 117° |
| 2026-04-30 18:27 | 51.47454 | -0.76637 | 2993 ft | 144 kts | 120° |
| 2026-04-30 18:27 | 51.46983 | -0.75212 | 3005 ft | 144 kts | 121° |
| 2026-04-30 18:28 | 51.46452 | -0.72103 | 2985 ft | 149 kts | 99° |
| 2026-04-30 18:28 | 51.46413 | -0.70462 | 2833 ft | 149 kts | 95° |
| 2026-04-30 18:28 | 51.46415 | -0.67131 | 2420 ft | 149 kts | 94° |
| 2026-04-30 18:29 | 51.46419 | -0.65478 | 2223 ft | 148 kts | 94° |
| 2026-04-30 18:29 | 51.46435 | -0.60671 | 1641 ft | 136 kts | 92° |
| 2026-04-30 18:30 | 51.46443 | -0.58254 | 1346 ft | 129 kts | 92° |
| 2026-04-30 18:30 | 51.46455 | -0.54880 | 930 ft | 131 kts | 91° |
| 2026-04-30 18:31 | 51.46459 | -0.53418 | 749 ft | 130 kts | 90° |
| 2026-04-30 18:31 | 51.46468 | -0.51015 | 459 ft | 130 kts | 89° |
| 2026-04-30 18:32 | 51.46481 | -0.48175 | 125 ft | 121 kts | 87° |
| 2026-04-30 18:32 | 51.46490 | -0.46932 | 93 ft | 94 kts | 93° |
| 2026-04-30 18:32 | 51.46487 | -0.45912 | 92 ft | 27 kts | 90° |
| 2026-04-30 18:33 | 51.46466 | -0.45636 | 91 ft | 24 kts | 105° |
| 2026-04-30 18:33 | 51.46334 | -0.45361 | 93 ft | 12 kts | 117° |
| 2026-04-30 18:33 | 51.46317 | -0.45240 | 93 ft | 10 kts | 94° |
| 2026-04-30 18:34 | 51.46315 | -0.45140 | 94 ft | 8 kts | 85° |
| 2026-04-30 18:34 | 51.46309 | -0.44753 | 91 ft | 15 kts | 121° |
| 2026-04-30 18:34 | 51.46255 | -0.44746 | 93 ft | 6 kts | 207° |
| 2026-04-30 18:35 | 51.46220 | -0.44787 | 95 ft | 7 kts | 218° |
| 2026-04-30 18:35 | 51.46179 | -0.44843 | 92 ft | 9 kts | 221° |
| 2026-04-30 18:35 | 51.46130 | -0.44914 | 95 ft | 10 kts | 222° |
| 2026-04-30 18:36 | 51.46008 | -0.45090 | 94 ft | 14 kts | 222° |
| 2026-04-30 18:36 | 51.45932 | -0.45196 | 95 ft | 15 kts | 221° |
| 2026-04-30 18:36 | 51.45849 | -0.45316 | 94 ft | 10 kts | 230° |
| 2026-04-30 18:37 | 51.45849 | -0.45338 | 93 ft | 2 kts | 290° |
| 2026-04-30 18:37 | 51.45870 | -0.45322 | 93 ft | 8 kts | 52° |
| 2026-04-30 18:37 | 51.45899 | -0.45241 | 95 ft | 7 kts | 75° |
| 2026-04-30 18:37 | 51.45885 | -0.45183 | 91 ft | 5 kts | 129° |
| 2026-04-30 18:38 | 51.45863 | -0.45140 | 94 ft | 5 kts | 130° |
| 2026-04-30 18:38 | 51.45855 | -0.45125 | 94 ft | 0 kts | 130° |
| 2026-04-30 18:38 | 51.45850 | -0.45116 | 94 ft | 0 kts | 131° |